createdAt,value
2023-11-14T00:00:21.609Z,95254.63
2023-11-14T00:02:48.320Z,95281.38
2023-11-14T00:05:15.093Z,95265.25
2023-11-14T00:07:41.800Z,95325.19
2023-11-14T00:10:08.737Z,95348.66
2023-11-14T00:12:35.659Z,95322.47
2023-11-14T00:15:02.324Z,95371.09
2023-11-14T00:17:29.767Z,95255.59
2023-11-14T00:19:57.314Z,95355.00
2023-11-14T00:22:24.251Z,95354.69
2023-11-14T00:24:50.980Z,95295.41
2023-11-14T00:27:18.985Z,95263.88
2023-11-14T00:29:45.658Z,95277.56
2023-11-14T00:32:12.346Z,95342.09
2023-11-14T00:34:39.163Z,95288.66
2023-11-14T00:37:06.143Z,95349.63
2023-11-14T00:39:32.859Z,95292.00
2023-11-14T00:42:00.994Z,95389.09
2023-11-14T00:44:27.682Z,95338.53
2023-11-14T00:46:54.473Z,95282.13
2023-11-14T00:49:21.200Z,95382.31
2023-11-14T00:51:47.865Z,95321.09
2023-11-14T00:54:14.618Z,95256.88
2023-11-14T00:56:41.326Z,95368.44
2023-11-14T00:59:10.061Z,95369.00
2023-11-14T01:01:37.025Z,95208.84
2023-11-14T01:04:04.244Z,95330.97
2023-11-14T01:06:30.995Z,95344.19
2023-11-14T01:08:57.768Z,95319.25
2023-11-14T01:11:24.684Z,95413.63
2023-11-14T01:13:51.500Z,95296.06
2023-11-14T01:16:18.346Z,95445.88
2023-11-14T01:18:45.070Z,95428.34
2023-11-14T01:21:17.954Z,95453.31
2023-11-14T01:23:45.349Z,95501.88
2023-11-14T01:26:12.082Z,95470.75
2023-11-14T01:28:39.667Z,95471.88
2023-11-14T01:31:06.473Z,95524.59
2023-11-14T01:33:33.457Z,95510.78
2023-11-14T01:36:00.233Z,95550.81
2023-11-14T01:38:27.084Z,95414.91
2023-11-14T01:40:54.098Z,95536.91
2023-11-14T01:43:20.875Z,95529.19
2023-11-14T01:45:47.540Z,95465.31
2023-11-14T01:48:14.245Z,95468.84
2023-11-14T01:50:40.887Z,95439.31
2023-11-14T01:53:08.778Z,95477.34
2023-11-14T01:55:36.235Z,95479.53
2023-11-14T01:58:03.297Z,95416.75
2023-11-14T02:00:29.895Z,95429.28
2023-11-14T02:02:56.552Z,95433.59
2023-11-14T02:05:23.972Z,95412.81
2023-11-14T02:07:50.693Z,95411.63
2023-11-14T02:10:17.361Z,95376.88
2023-11-14T02:12:44.293Z,95324.03
2023-11-14T02:15:12.234Z,95391.44
2023-11-14T02:17:43.559Z,95217.97
2023-11-14T02:20:11.259Z,95330.72
2023-11-14T02:22:38.899Z,95328.13
2023-11-14T02:25:05.978Z,95342.81
2023-11-14T02:27:32.736Z,95369.84
2023-11-14T02:29:59.400Z,95315.34
2023-11-14T02:32:26.112Z,95348.78
2023-11-14T02:34:55.851Z,95390.44
2023-11-14T02:37:22.489Z,95345.53
2023-11-14T02:39:49.154Z,95365.00
2023-11-14T02:42:15.932Z,95285.50
2023-11-14T02:44:42.602Z,95305.69
2023-11-14T02:47:09.425Z,95288.09
2023-11-14T02:50:06.478Z,95402.53
2023-11-14T02:52:37.431Z,95387.16
2023-11-14T02:55:05.322Z,95288.34
2023-11-14T02:57:32.103Z,95386.34
2023-11-14T02:59:58.725Z,95415.22
2023-11-14T03:02:26.961Z,95304.28
2023-11-14T03:04:53.722Z,95437.53
2023-11-14T03:07:20.363Z,95376.25
2023-11-14T03:09:46.992Z,95408.44
2023-11-14T03:12:13.916Z,95399.00
2023-11-14T03:14:40.581Z,95374.88
2023-11-14T03:17:07.565Z,95405.34
2023-11-14T03:19:34.223Z,95447.72
2023-11-14T03:22:00.899Z,95446.53
2023-11-14T03:24:27.570Z,95345.88
2023-11-14T03:26:55.766Z,95397.41
2023-11-14T03:29:22.383Z,95351.22
2023-11-14T03:31:49.278Z,95402.09
2023-11-14T03:34:15.949Z,95429.84
2023-11-14T03:36:42.570Z,95510.38
2023-11-14T03:39:09.353Z,95481.66
2023-11-14T03:41:35.968Z,95481.66
2023-11-14T03:44:02.758Z,95325.28
2023-11-14T03:46:29.489Z,95422.81
2023-11-14T03:48:56.176Z,95472.25
2023-11-14T03:51:22.819Z,95423.94
2023-11-14T03:53:50.871Z,95501.19
2023-11-14T03:56:17.519Z,95446.63
2023-11-14T03:58:44.252Z,95333.50
2023-11-14T04:01:10.883Z,95488.06
2023-11-14T04:03:38.593Z,95443.03
2023-11-14T04:06:05.416Z,95499.28
2023-11-14T04:08:32.082Z,95507.03
2023-11-14T04:10:58.864Z,95472.69
2023-11-14T04:13:25.842Z,95566.38
2023-11-14T04:15:53.210Z,95411.81
2023-11-14T04:18:20.018Z,95471.16
2023-11-14T04:20:47.432Z,95517.88
2023-11-14T04:23:14.132Z,95573.41
2023-11-14T04:25:40.836Z,95589.59
2023-11-14T04:28:07.482Z,95525.22
2023-11-14T04:30:34.115Z,95438.84
2023-11-14T04:33:01.115Z,95540.72
2023-11-14T04:35:28.000Z,95553.25
2023-11-14T04:37:57.674Z,95480.41
2023-11-14T04:40:24.679Z,95491.53
2023-11-14T04:42:52.035Z,95497.50
2023-11-14T04:45:18.700Z,95480.75
2023-11-14T04:47:45.530Z,95529.56
2023-11-14T04:50:13.272Z,95353.28
2023-11-14T04:52:40.312Z,95549.22
2023-11-14T04:55:07.120Z,95560.50
2023-11-14T04:57:33.781Z,95488.69
2023-11-14T05:00:00.663Z,95539.31
2023-11-14T05:02:29.405Z,95406.34
2023-11-14T05:04:56.252Z,95595.28
2023-11-14T05:07:22.928Z,95546.91
2023-11-14T05:09:49.778Z,95597.06
2023-11-14T05:12:16.648Z,95544.53
2023-11-14T05:14:45.289Z,95516.59
2023-11-14T05:17:11.953Z,95542.59
2023-11-14T05:19:38.930Z,95444.09
2023-11-14T05:22:05.819Z,95591.78
2023-11-14T05:24:32.433Z,95500.50
2023-11-14T05:26:59.344Z,95613.56
2023-11-14T05:29:26.179Z,95572.88
2023-11-14T05:31:52.866Z,95575.16
2023-11-14T05:34:19.542Z,95442.28
2023-11-14T05:36:46.203Z,95574.66
2023-11-14T05:39:12.950Z,95598.19
2023-11-14T05:41:42.084Z,95537.56
2023-11-14T05:44:08.858Z,95600.19
2023-11-14T05:46:36.090Z,95637.09
2023-11-14T05:49:02.867Z,95659.78
2023-11-14T05:51:29.661Z,95456.06
2023-11-14T05:53:56.413Z,95507.16
2023-11-14T05:56:23.220Z,95607.28
2023-11-14T05:58:49.917Z,95602.34
2023-11-14T06:01:16.724Z,95589.44
2023-11-14T06:03:43.468Z,95576.88
2023-11-14T06:06:11.092Z,95562.06
2023-11-14T06:08:37.833Z,95691.31
2023-11-14T06:11:04.555Z,95636.81
2023-11-14T06:13:31.243Z,95601.09
2023-11-14T06:15:58.265Z,95568.38
2023-11-14T06:18:24.921Z,95586.28
2023-11-14T06:20:51.561Z,95640.50
2023-11-14T06:23:20.661Z,95678.13
2023-11-14T06:25:47.346Z,95681.06
2023-11-14T06:28:14.265Z,95612.75
2023-11-14T06:30:40.977Z,95682.03
2023-11-14T06:33:07.697Z,95682.84
2023-11-14T06:35:36.380Z,95718.38
2023-11-14T06:38:03.725Z,95640.34
2023-11-14T06:40:30.454Z,95715.47
2023-11-14T06:42:57.096Z,95697.38
2023-11-14T06:45:23.840Z,95672.31
2023-11-14T06:47:51.212Z,95729.69
2023-11-14T06:50:26.809Z,95686.06
2023-11-14T06:53:00.746Z,95642.09
2023-11-14T06:55:28.203Z,95641.16
2023-11-14T06:57:54.996Z,95683.31
2023-11-14T07:00:21.755Z,95756.00
2023-11-14T07:02:48.589Z,95736.59
2023-11-14T07:05:15.292Z,95734.81
2023-11-14T07:07:41.980Z,95674.38
2023-11-14T07:10:09.097Z,95647.28
2023-11-14T07:12:35.720Z,95703.25
2023-11-14T07:15:02.365Z,95690.66
2023-11-14T07:17:29.232Z,95678.03
2023-11-14T07:19:56.218Z,95532.63
2023-11-14T07:22:23.015Z,95567.31
2023-11-14T07:24:49.658Z,95649.41
2023-11-14T07:27:16.605Z,95595.34
2023-11-14T07:29:43.357Z,95639.97
2023-11-14T07:32:10.094Z,95619.63
2023-11-14T07:34:36.742Z,95656.03
2023-11-14T07:37:03.458Z,95616.97
2023-11-14T07:39:30.698Z,95643.78
2023-11-14T07:41:58.222Z,95636.97
2023-11-14T07:44:25.006Z,95675.66
2023-11-14T07:46:51.688Z,95681.16
2023-11-14T07:49:18.345Z,95611.84
2023-11-14T07:51:44.980Z,95695.94
2023-11-14T07:54:11.890Z,95715.97
2023-11-14T07:56:41.717Z,95682.69
2023-11-14T07:59:09.968Z,95717.94
2023-11-14T08:01:36.671Z,95729.09
2023-11-14T08:04:07.502Z,95758.09
2023-11-14T08:06:34.384Z,95630.59
2023-11-14T08:09:01.014Z,95735.91
2023-11-14T08:11:27.716Z,95712.03
2023-11-14T08:13:54.414Z,95665.56
2023-11-14T08:16:21.201Z,95763.63
2023-11-14T08:18:47.860Z,95772.44
2023-11-14T08:21:14.478Z,95621.91
2023-11-14T08:23:44.153Z,95766.72
2023-11-14T08:26:10.816Z,95655.25
2023-11-14T08:28:40.965Z,95561.88
2023-11-14T08:31:07.826Z,95728.34
2023-11-14T08:33:37.599Z,95782.41
2023-11-14T08:36:05.339Z,95739.81
2023-11-14T08:38:32.475Z,95673.91
2023-11-14T08:41:02.829Z,95700.66
2023-11-14T08:43:29.514Z,95701.03
2023-11-14T08:45:56.160Z,95780.63
2023-11-14T08:48:22.821Z,95722.00
2023-11-14T08:50:52.130Z,95761.41
2023-11-14T08:53:20.048Z,95758.81
2023-11-14T08:55:46.927Z,95797.44
2023-11-14T08:58:13.593Z,95680.66
2023-11-14T09:00:40.246Z,95715.31
2023-11-14T09:03:07.075Z,95765.50
2023-11-14T09:05:35.656Z,95744.72
2023-11-14T09:08:02.390Z,95691.56
2023-11-14T09:10:29.065Z,95746.00
2023-11-14T09:12:57.781Z,95773.94
2023-11-14T09:15:24.513Z,95728.84
2023-11-14T09:17:55.352Z,95778.31
2023-11-14T09:20:24.396Z,95756.47
2023-11-14T09:22:52.744Z,95719.34
2023-11-14T09:25:19.994Z,95769.19
2023-11-14T09:27:46.620Z,95834.34
2023-11-14T09:30:15.535Z,95827.00
2023-11-14T09:32:42.446Z,95669.00
2023-11-14T09:35:11.387Z,95822.91
2023-11-14T09:37:38.219Z,95701.72
2023-11-14T09:40:09.496Z,95771.31
2023-11-14T09:42:36.865Z,95613.06
2023-11-14T09:45:06.982Z,95835.81
2023-11-14T09:47:33.766Z,95799.44
2023-11-14T09:50:00.825Z,95755.59
2023-11-14T09:52:27.479Z,95756.13
2023-11-14T09:54:54.146Z,95847.06
2023-11-14T09:57:20.763Z,95689.13
2023-11-14T09:59:47.356Z,95805.22
2023-11-14T10:02:13.960Z,95756.50
2023-11-14T10:04:41.615Z,95814.75
2023-11-14T10:07:09.495Z,95747.28
2023-11-14T10:09:39.226Z,95749.09
2023-11-14T10:12:17.946Z,95753.38
2023-11-14T10:14:50.292Z,95812.31
2023-11-14T10:17:18.731Z,95714.22
2023-11-14T10:19:59.695Z,95801.75
2023-11-14T10:22:26.543Z,95701.41
2023-11-14T10:24:54.095Z,95688.34
2023-11-14T10:27:38.172Z,95764.72
2023-11-14T10:30:05.780Z,95602.19
2023-11-14T10:32:33.702Z,95742.94
2023-11-14T10:35:16.568Z,95825.56
2023-11-14T10:37:43.229Z,95819.50
2023-11-14T10:40:11.742Z,95783.06
2023-11-14T10:42:38.692Z,95807.47
2023-11-14T10:45:09.288Z,95826.34
2023-11-14T10:47:43.166Z,95799.47
2023-11-14T10:50:29.561Z,95785.25
2023-11-14T10:52:57.513Z,95769.66
2023-11-14T10:55:25.303Z,95741.13
2023-11-14T10:57:52.947Z,95711.63
2023-11-14T11:00:21.971Z,95818.78
2023-11-14T11:02:51.741Z,95717.94
2023-11-14T11:05:25.008Z,95803.91
2023-11-14T11:07:59.078Z,95689.09
2023-11-14T11:10:28.773Z,95745.69
2023-11-14T11:12:55.535Z,95752.69
2023-11-14T11:15:22.191Z,95803.47
2023-11-14T11:17:48.994Z,95565.63
2023-11-14T11:20:23.557Z,95799.72
2023-11-14T11:23:14.065Z,95818.88
2023-11-14T11:25:44.322Z,95800.56
2023-11-14T11:28:20.859Z,95815.00
2023-11-14T11:31:05.810Z,95813.75
2023-11-14T11:33:34.083Z,95733.69
2023-11-14T11:36:22.880Z,95803.50
2023-11-14T11:38:56.142Z,95806.09
2023-11-14T11:41:23.693Z,95734.31
2023-11-14T11:44:10.537Z,95719.81
2023-11-14T11:46:37.345Z,95799.69
2023-11-14T11:49:23.364Z,95810.53
2023-11-14T11:51:50.202Z,95740.53
2023-11-14T11:54:29.150Z,95811.63
2023-11-14T11:57:20.896Z,95807.03
2023-11-14T11:59:52.606Z,95808.94
2023-11-14T12:02:20.710Z,95747.09
2023-11-14T12:04:50.156Z,95544.50
2023-11-14T12:07:17.291Z,95796.59
2023-11-14T12:09:44.027Z,95801.00
2023-11-14T12:12:10.808Z,95565.34
2023-11-14T12:14:37.982Z,95598.72
2023-11-14T12:17:07.756Z,95737.84
2023-11-14T12:19:35.156Z,95787.22
2023-11-14T12:22:02.388Z,95721.16
2023-11-14T12:24:29.086Z,95647.41
2023-11-14T12:26:57.306Z,95804.97
2023-11-14T12:29:24.994Z,95698.69
2023-11-14T12:31:52.392Z,95815.16
2023-11-14T12:34:30.774Z,95801.72
2023-11-14T12:37:09.464Z,95818.50
2023-11-14T12:39:36.288Z,95786.88
2023-11-14T12:42:03.044Z,95818.69
2023-11-14T12:44:29.924Z,95694.78
2023-11-14T12:46:56.692Z,95808.72
2023-11-14T12:49:28.998Z,95721.72
2023-11-14T12:51:56.178Z,95767.69
2023-11-14T12:54:23.476Z,95708.97
2023-11-14T12:56:50.661Z,95667.97
2023-11-14T12:59:17.988Z,95620.72
2023-11-14T13:01:46.356Z,95499.31
2023-11-14T13:04:14.356Z,95732.03
2023-11-14T13:06:46.064Z,95807.31
2023-11-14T13:09:14.500Z,95712.44
2023-11-14T13:11:41.212Z,95748.75
2023-11-14T13:14:08.027Z,95692.44
2023-11-14T13:16:36.749Z,95737.50
2023-11-14T13:19:03.997Z,95734.75
2023-11-14T13:21:30.972Z,95734.28
2023-11-14T13:23:58.048Z,95741.00
2023-11-14T13:26:24.824Z,95699.06
2023-11-14T13:28:52.074Z,95682.09
2023-11-14T13:31:20.425Z,95781.91
2023-11-14T13:33:47.589Z,95762.38
2023-11-14T13:36:17.775Z,95501.94
2023-11-14T13:38:45.975Z,95721.66
2023-11-14T13:41:21.982Z,95707.88
2023-11-14T13:43:48.848Z,95717.94
2023-11-14T13:46:23.851Z,95770.47
2023-11-14T13:48:58.750Z,95659.78
2023-11-14T13:51:26.016Z,95597.91
2023-11-14T13:53:52.991Z,95704.31
2023-11-14T13:56:20.141Z,95605.16
2023-11-14T13:58:47.364Z,95727.53
2023-11-14T14:01:15.678Z,95716.38
2023-11-14T14:03:42.591Z,95677.63
2023-11-14T14:06:10.571Z,95698.44
2023-11-14T14:08:37.572Z,95708.28
2023-11-14T14:11:07.952Z,95634.47
2023-11-14T14:13:34.696Z,95686.22
2023-11-14T14:16:02.095Z,95600.91
2023-11-14T14:18:29.557Z,95649.34
2023-11-14T14:21:03.463Z,95700.22
2023-11-14T14:23:31.051Z,95724.50
2023-11-14T14:25:58.665Z,95695.31
2023-11-14T14:28:35.775Z,95703.63
2023-11-14T14:31:06.388Z,95742.03
2023-11-14T14:33:33.451Z,95624.09
2023-11-14T14:36:00.114Z,95673.38
2023-11-14T14:38:26.846Z,95586.31
2023-11-14T14:40:53.602Z,95528.94
2023-11-14T14:43:20.408Z,95582.63
2023-11-14T14:45:47.907Z,95686.78
2023-11-14T14:48:14.900Z,95690.06
2023-11-14T14:50:41.620Z,95727.00
2023-11-14T14:53:11.222Z,95621.03
2023-11-14T14:55:55.539Z,95690.13
2023-11-14T14:58:22.653Z,95663.66
2023-11-14T15:00:49.505Z,95625.28
2023-11-14T15:03:21.275Z,95704.06
2023-11-14T15:05:51.128Z,95667.22
2023-11-14T15:08:18.068Z,95727.16
2023-11-14T15:10:45.520Z,95766.53
2023-11-14T15:13:12.460Z,95691.47
2023-11-14T15:15:39.275Z,95780.31
2023-11-14T15:18:06.824Z,95724.25
2023-11-14T15:20:33.813Z,95766.78
2023-11-14T15:23:02.111Z,95755.69
2023-11-14T15:25:31.244Z,95727.75
2023-11-14T15:27:58.173Z,95685.00
2023-11-14T15:30:24.844Z,95737.59
2023-11-14T15:32:51.577Z,95691.34
2023-11-14T15:35:18.474Z,95696.81
2023-11-14T15:37:45.103Z,95646.78
2023-11-14T15:40:12.731Z,95737.94
2023-11-14T15:42:42.516Z,95667.59
2023-11-14T15:45:09.553Z,95709.38
2023-11-14T15:48:03.332Z,95752.19
2023-11-14T15:50:29.993Z,95691.34
2023-11-14T15:52:56.706Z,95531.72
2023-11-14T15:55:23.954Z,95735.69
2023-11-14T15:57:53.052Z,95669.72
2023-11-14T16:00:19.818Z,95671.69
2023-11-14T16:02:48.396Z,95663.78
2023-11-14T16:05:15.361Z,95661.09
2023-11-14T16:07:42.036Z,95667.50
2023-11-14T16:10:08.958Z,95679.53
2023-11-14T16:12:35.583Z,95575.81
2023-11-14T16:15:04.214Z,95669.66
2023-11-14T16:17:31.071Z,95709.91
2023-11-14T16:19:57.814Z,95607.00
2023-11-14T16:22:24.559Z,95684.81
2023-11-14T16:24:51.232Z,95732.41
2023-11-14T16:27:17.841Z,95392.81
2023-11-14T16:29:46.666Z,95655.25
2023-11-14T16:32:14.388Z,95689.03
2023-11-14T16:34:41.030Z,95588.56
2023-11-14T16:37:07.935Z,95709.06
2023-11-14T16:39:49.677Z,95724.22
2023-11-14T16:42:16.471Z,95655.16
2023-11-14T16:44:43.247Z,95725.19
2023-11-14T16:47:09.919Z,95637.97
2023-11-14T16:49:37.937Z,95611.47
2023-11-14T16:52:05.438Z,95667.53
2023-11-14T16:54:32.903Z,95678.69
2023-11-14T16:57:00.146Z,95730.31
2023-11-14T16:59:26.862Z,95501.88
2023-11-14T17:01:58.295Z,95614.78
2023-11-14T17:04:27.394Z,95683.34
2023-11-14T17:06:54.208Z,95715.81
2023-11-14T17:09:22.382Z,95632.19
2023-11-14T17:11:49.016Z,95573.31
2023-11-14T17:14:16.336Z,95680.75
2023-11-14T17:16:43.137Z,95680.28
2023-11-14T17:19:10.953Z,95674.81
2023-11-14T17:21:37.673Z,95737.44
2023-11-14T17:24:04.777Z,95702.25
2023-11-14T17:26:32.293Z,95506.19
2023-11-14T17:28:59.524Z,95513.75
2023-11-14T17:31:26.603Z,95508.13
2023-11-14T17:33:53.245Z,95655.03
2023-11-14T17:36:20.255Z,95606.75
2023-11-14T17:38:46.899Z,95561.47
2023-11-14T17:41:14.085Z,95516.63
2023-11-14T17:43:40.789Z,95666.41
2023-11-14T17:46:07.519Z,95588.50
2023-11-14T17:48:34.494Z,95652.41
2023-11-14T17:51:01.321Z,95608.66
2023-11-14T17:53:28.049Z,95484.03
2023-11-14T17:55:54.754Z,95682.22
2023-11-14T17:58:23.949Z,95633.94
2023-11-14T18:00:50.927Z,95437.41
2023-11-14T18:03:18.517Z,95669.88
2023-11-14T18:05:46.111Z,95674.38
2023-11-14T18:08:14.592Z,95643.22
2023-11-14T18:10:42.756Z,95713.91
2023-11-14T18:13:09.714Z,95647.28
2023-11-14T18:15:36.493Z,95426.75
2023-11-14T18:18:03.804Z,95531.97
2023-11-14T18:20:30.724Z,95598.44
2023-11-14T18:22:57.809Z,95666.56
2023-11-14T18:25:24.514Z,95618.78
2023-11-14T18:27:51.199Z,95678.91
2023-11-14T18:30:17.934Z,95665.03
2023-11-14T18:32:46.270Z,95603.06
2023-11-14T18:35:14.869Z,95650.59
2023-11-14T18:37:41.714Z,95575.75
2023-11-14T18:40:08.816Z,95573.59
2023-11-14T18:42:38.490Z,95591.22
2023-11-14T18:45:08.131Z,95397.09
2023-11-14T18:47:38.525Z,95552.19
2023-11-14T18:50:06.238Z,95604.81
2023-11-14T18:52:34.040Z,95619.91
2023-11-14T18:55:01.185Z,95584.16
2023-11-14T18:57:28.149Z,95472.06
2023-11-14T18:59:55.432Z,95503.50
2023-11-14T19:02:29.809Z,95556.59
2023-11-14T19:04:56.654Z,95591.41
2023-11-14T19:07:27.687Z,95633.25
2023-11-14T19:09:55.240Z,95579.00
2023-11-14T19:12:25.407Z,95495.09
2023-11-14T19:14:53.054Z,95601.19
2023-11-14T19:17:20.305Z,95566.50
2023-11-14T19:19:47.377Z,95531.38
2023-11-14T19:22:35.881Z,95548.47
2023-11-14T19:25:02.848Z,95589.66
2023-11-14T19:27:31.507Z,95514.94
2023-11-14T19:29:58.150Z,95584.72
2023-11-14T19:32:24.951Z,95543.63
2023-11-14T19:34:51.758Z,95342.09
2023-11-14T19:37:18.393Z,95545.09
2023-11-14T19:39:45.055Z,95606.47
2023-11-14T19:42:11.823Z,95528.56
2023-11-14T19:44:39.616Z,95313.03
2023-11-14T19:47:06.495Z,95528.69
2023-11-14T19:49:39.197Z,95552.09
2023-11-14T19:52:13.033Z,95553.47
2023-11-14T19:54:39.635Z,95474.00
2023-11-14T19:57:06.872Z,95489.25
2023-11-14T19:59:34.421Z,95162.59
2023-11-14T20:02:01.734Z,95400.75
2023-11-14T20:04:28.445Z,95519.63
2023-11-14T20:06:55.190Z,95474.94
2023-11-14T20:09:21.857Z,95530.34
2023-11-14T20:11:48.855Z,95573.50
2023-11-14T20:14:18.071Z,95292.41
2023-11-14T20:16:44.770Z,95563.59
2023-11-14T20:19:11.461Z,95577.63
2023-11-14T20:21:38.185Z,95513.75
2023-11-14T20:24:05.294Z,95551.78
2023-11-14T20:26:31.993Z,95528.84
2023-11-14T20:28:58.642Z,95475.41
2023-11-14T20:31:25.381Z,95485.63
2023-11-14T20:33:52.013Z,95551.34
2023-11-14T20:36:19.834Z,95378.78
2023-11-14T20:38:47.036Z,95254.78
2023-11-14T20:41:15.292Z,95602.66
2023-11-14T20:43:42.021Z,95257.44
2023-11-14T20:46:09.721Z,95533.16
2023-11-14T20:48:36.497Z,95542.41
2023-11-14T20:51:13.657Z,95525.59
2023-11-14T20:53:44.479Z,95495.88
2023-11-14T20:56:11.201Z,95477.81
2023-11-14T20:58:38.094Z,95276.69
2023-11-14T21:01:04.789Z,95525.44
2023-11-14T21:03:31.644Z,95508.88
2023-11-14T21:05:58.655Z,95517.63
2023-11-14T21:08:25.328Z,95483.75
2023-11-14T21:10:51.991Z,95473.34
2023-11-14T21:13:18.661Z,95515.44
2023-11-14T21:15:45.369Z,95440.47
2023-11-14T21:18:12.375Z,95516.25
2023-11-14T21:20:39.126Z,95569.91
2023-11-14T21:23:05.843Z,95474.91
2023-11-14T21:25:33.468Z,95507.00
2023-11-14T21:28:00.120Z,95485.44
2023-11-14T21:30:27.532Z,95542.72
2023-11-14T21:32:57.209Z,95495.00
2023-11-14T21:35:24.330Z,95541.63
2023-11-14T21:37:51.498Z,95467.56
2023-11-14T21:40:18.141Z,95544.59
2023-11-14T21:42:45.104Z,95450.06
2023-11-14T21:45:11.922Z,95475.34
2023-11-14T21:47:39.470Z,95352.53
2023-11-14T21:50:06.911Z,95435.22
2023-11-14T21:52:33.702Z,95497.84
2023-11-14T21:55:00.376Z,95497.91
2023-11-14T21:57:27.041Z,95485.09
2023-11-14T21:59:53.700Z,95507.34
2023-11-14T22:02:20.564Z,95453.59
2023-11-14T22:04:48.689Z,95479.56
2023-11-14T22:07:15.396Z,95485.31
2023-11-14T22:09:42.103Z,95514.31
2023-11-14T22:12:09.399Z,95457.69
2023-11-14T22:14:36.127Z,95204.38
2023-11-14T22:17:02.808Z,95416.97
2023-11-14T22:19:30.333Z,95456.16
2023-11-14T22:21:56.943Z,95464.84
2023-11-14T22:24:23.654Z,95310.88
2023-11-14T22:26:50.362Z,95406.09
2023-11-14T22:29:17.161Z,95410.97
2023-11-14T22:31:43.832Z,95439.13
2023-11-14T22:34:10.524Z,95479.19
2023-11-14T22:36:37.250Z,95472.13
2023-11-14T22:39:05.214Z,95385.47
2023-11-14T22:41:31.933Z,95469.13
2023-11-14T22:43:58.921Z,95452.38
2023-11-14T22:46:27.612Z,95275.28
2023-11-14T22:48:54.493Z,95493.78
2023-11-14T22:51:21.188Z,95476.16
2023-11-14T22:53:48.708Z,95475.88
2023-11-14T22:56:21.721Z,95478.47
2023-11-14T22:58:48.440Z,95425.94
2023-11-14T23:01:15.579Z,95386.63
2023-11-14T23:03:43.872Z,95481.81
2023-11-14T23:06:12.282Z,95440.94
2023-11-14T23:08:39.034Z,95421.13
2023-11-14T23:11:06.110Z,95394.88
2023-11-14T23:13:33.668Z,95467.28
2023-11-14T23:16:00.836Z,95437.44
2023-11-14T23:18:28.216Z,95417.16
2023-11-14T23:20:55.759Z,95416.03
2023-11-14T23:23:23.897Z,95342.88
2023-11-14T23:25:50.545Z,95327.09
2023-11-14T23:28:17.296Z,95430.03
2023-11-14T23:30:44.816Z,95367.31
2023-11-14T23:33:12.518Z,95428.50
2023-11-14T23:35:39.453Z,95275.69
2023-11-14T23:38:06.083Z,95381.44
2023-11-14T23:40:34.817Z,95383.22
2023-11-14T23:43:01.416Z,95415.56
2023-11-14T23:45:30.006Z,95406.88
2023-11-14T23:47:56.726Z,95428.00
2023-11-14T23:50:23.973Z,95399.50
2023-11-14T23:52:50.807Z,95152.03
2023-11-14T23:55:17.537Z,95323.44
2023-11-14T23:57:44.221Z,95366.28
